Chomutov, Czech Republic
Current Conditions -  °F | °C
As of 3:00 AM on Sunday 21 Dec 2014 (Local Time) from LKKV Reporting Station
Broken Clouds Broken Clouds  
Wind Chill: 25°   Ceiling: 2000
Heat Index: 34°   Visibility: 6mi
Dew Point: 30°   Wind: 12mph
Humidity: 87%   Direction: 250°WSW
Pressure: 30.15"   Gusts: NA
Location:  50.46°N, 13.39°E
Report Text: LKKV 210100Z 25010KT 9999 BKN020 01/M01 Q1021
Loading
Personal Weather Stations






























Interactive Weather Map New forecast layout! Learn more

10-Day Weather Forecast

Advertisements
Track Severe Weather on mobile